Time;durP1;ratioP1;P1;durP2;ratioP2;P2;SDS_P1;SDS_P2;PMS_P1;PMS_P2;Temp;Humidity;BMP_temperature;BMP_pressure;BME280_temperature;BME280_humidity;BME280_pressure;Samples;Min_cycle;Max_cycle;Signal;HPM_P1;HPM_P2
2021/03/23 05:10:36;;;;;;;1.30;1.30;;;5.50;99.90;;;;;;5862217;23;20248;-75
2021/03/23 05:13:04;;;;;;;1.20;1.20;;;5.50;99.90;;;;;;4956595;28;20544;-75
2021/03/23 05:15:32;;;;;;;1.20;1.20;;;5.40;99.90;;;;;;4956605;29;20213;-76
2021/03/23 05:17:59;;;;;;;1.20;1.20;;;;;;;;;;4956644;28;20210;-75
2021/03/23 05:20:26;;;;;;;1.20;1.20;;;;;;;;;;4957056;28;20209;-75
2021/03/23 05:22:53;;;;;;;1.20;1.20;;;5.50;99.90;;;;;;4956332;29;20240;-75
2021/03/23 05:25:20;;;;;;;1.10;1.10;;;5.40;99.90;;;;;;4957445;29;20205;-76
2021/03/23 05:27:48;;;;;;;1.20;1.20;;;5.30;99.90;;;;;;4956659;28;20609;-76
2021/03/23 05:30:16;;;;;;;1.10;1.10;;;5.30;99.90;;;;;;4956598;28;20622;-76
2021/03/23 05:32:43;;;;;;;1.13;1.13;;;5.30;99.90;;;;;;4956667;28;20205;-76
2021/03/23 05:35:13;;;;;;;1.03;1.03;;;5.20;99.90;;;;;;4956850;28;20582;-76
2021/03/23 05:37:47;;;;;;;1.40;1.40;;;5.30;99.90;;;;;;4956654;29;20209;-75
2021/03/23 05:40:20;;;;;;;1.10;1.10;;;5.30;99.90;;;;;;4956564;28;20202;-75
2021/03/23 05:42:57;;;;;;;1.20;1.20;;;5.40;99.90;;;;;;4956364;29;20233;-75
2021/03/23 05:45:34;;;;;;;1.20;1.20;;;5.50;99.90;;;;;;4956228;29;20212;-74
2021/03/23 05:48:19;;;;;;;1.10;1.10;;;5.50;99.90;;;;;;4956038;29;20236;-75
2021/03/23 05:50:54;;;;;;;1.10;1.10;;;6.20;99.90;;;;;;4956095;28;20257;-74
2021/03/23 05:53:40;;;;;;;1.20;1.20;;;5.40;99.90;;;;;;4956026;29;20676;-75
2021/03/23 05:56:08;;;;;;;1.17;1.17;;;;;;;;;;4948952;28;20201;-74
2021/03/23 05:58:40;;;;;;;1.30;1.30;;;5.40;99.90;;;;;;4969288;28;20205;-74
2021/03/23 06:01:16;;;;;;;1.37;1.37;;;5.30;99.90;;;;;;4963399;28;20315;-74
2021/03/23 06:03:49;;;;;;;1.00;1.00;;;5.40;99.90;;;;;;4962549;28;20197;-75
2021/03/23 06:06:23;;;;;;;1.30;1.30;;;5.50;99.90;;;;;;4959027;28;20216;-76
2021/03/23 06:08:50;;;;;;;1.20;1.20;;;5.50;99.90;;;;;;4954947;28;20279;-76
2021/03/23 06:11:41;;;;;;;1.10;1.10;;;5.60;99.90;;;;;;4954244;28;20225;-76
2021/03/23 06:14:44;;;;;;;1.20;1.20;;;5.60;99.90;;;;;;4952842;29;20334;-75
2021/03/23 06:17:21;;;;;;;0.90;0.90;;;5.50;99.90;;;;;;4950645;29;20279;-76
2021/03/23 06:20:00;;;;;;;1.30;1.30;;;5.50;99.90;;;;;;4954534;29;20205;-76
2021/03/23 06:22:43;;;;;;;1.30;1.30;;;6.00;99.90;;;;;;4954467;28;20296;-75
2021/03/23 06:25:24;;;;;;;1.10;1.10;;;5.50;99.90;;;;;;4953454;28;20237;-76
2021/03/23 06:27:54;;;;;;;1.40;1.40;;;4.30;99.90;;;;;;4954437;29;20666;-75
2021/03/23 06:30:49;;;;;;;1.10;1.10;;;5.60;99.90;;;;;;4954656;28;20738;-75
2021/03/23 06:33:20;;;;;;;1.30;1.30;;;5.70;99.90;;;;;;4949880;29;20204;-74
2021/03/23 06:35:52;;;;;;;1.10;1.10;;;5.70;99.90;;;;;;4951842;29;20193;-76
2021/03/23 06:38:35;;;;;;;1.37;1.37;;;5.60;99.90;;;;;;4954180;29;20201;-77
2021/03/23 06:41:19;;;;;;;1.00;1.00;;;5.80;99.90;;;;;;4953144;29;20623;-77
2021/03/23 06:43:48;;;;;;;1.30;1.30;;;5.70;99.90;;;;;;4957909;29;20197;-78
2021/03/23 06:46:38;;;;;;;1.20;1.20;;;5.80;99.90;;;;;;4962149;28;20201;-75
2021/03/23 06:49:25;;;;;;;1.00;1.00;;;5.70;99.90;;;;;;4962133;29;20284;-76
2021/03/23 06:52:02;;;;;;;1.20;1.20;;;5.90;99.90;;;;;;4963553;28;20221;-76
2021/03/23 06:54:32;;;;;;;1.10;1.10;;;5.80;99.90;;;;;;4957196;29;20224;-76
2021/03/23 06:57:01;;;;;;;1.10;1.10;;;5.80;99.90;;;;;;4957408;29;20205;-77
2021/03/23 06:59:28;;;;;;;1.20;1.20;;;;;;;;;;4956245;29;20519;-76
2021/03/23 07:02:01;;;;;;;1.10;1.10;;;6.00;99.90;;;;;;4950611;28;20258;-74
2021/03/23 07:04:34;;;;;;;1.10;1.10;;;5.90;99.90;;;;;;4942935;29;20213;-76
2021/03/23 07:07:15;;;;;;;1.10;1.10;;;5.80;99.90;;;;;;4948251;28;20326;-76
2021/03/23 07:09:52;;;;;;;1.10;1.10;;;5.90;99.90;;;;;;4962127;28;20208;-76
2021/03/23 07:12:20;;;;;;;1.27;1.27;;;6.50;99.90;;;;;;4968754;28;20228;-76
2021/03/23 07:14:49;;;;;;;1.10;1.10;;;6.30;99.90;;;;;;4972539;28;20363;-75
2021/03/23 07:17:27;;;;;;;1.23;1.23;;;6.30;99.90;;;;;;4972555;28;20209;-76
2021/03/23 07:20:00;;;;;;;1.00;1.00;;;6.20;99.90;;;;;;4958676;28;20331;-75
2021/03/23 07:22:35;;;;;;;1.27;1.27;;;6.30;99.90;;;;;;4954542;28;20235;-75
2021/03/23 07:25:06;;;;;;;1.10;1.10;;;6.40;99.90;;;;;;4959689;28;20204;-75
2021/03/23 07:27:33;;;;;;;1.13;1.13;;;6.30;99.90;;;;;;4964120;28;20263;-75
2021/03/23 07:30:26;;;;;;;1.23;1.23;;;6.10;99.90;;;;;;4972042;28;20228;-74
2021/03/23 07:32:59;;;;;;;1.03;1.03;;;6.10;99.90;;;;;;4966116;28;20268;-75
2021/03/23 07:35:31;;;;;;;1.20;1.20;;;6.00;99.90;;;;;;4953240;28;20305;-75
2021/03/23 07:38:03;;;;;;;1.40;1.40;;;6.10;99.90;;;;;;4954482;28;20252;-73
2021/03/23 07:40:36;;;;;;;1.30;1.30;;;6.10;99.90;;;;;;4971082;28;20603;-74
2021/03/23 07:43:21;;;;;;;1.20;1.20;;;6.10;99.90;;;;;;4972927;28;20271;-75
2021/03/23 07:45:58;;;;;;;1.10;1.10;;;6.30;99.90;;;;;;4955331;29;20209;-75
2021/03/23 07:48:38;;;;;;;1.10;1.10;;;6.50;99.90;;;;;;4956847;28;20303;-75
2021/03/23 07:51:26;;;;;;;1.00;1.00;;;6.40;99.90;;;;;;4955061;28;20255;-76
2021/03/23 07:54:14;;;;;;;1.30;1.30;;;6.50;99.90;;;;;;4951394;28;20662;-75
2021/03/23 07:56:56;;;;;;;1.40;1.40;;;7.00;99.90;;;;;;4962171;28;20278;-74
2021/03/23 07:59:35;;;;;;;1.20;1.20;;;6.80;99.90;;;;;;4968896;28;20200;-75
2021/03/23 08:02:19;;;;;;;1.00;1.00;;;6.90;99.90;;;;;;4971416;28;20235;-75
2021/03/23 08:04:56;;;;;;;1.10;1.10;;;7.20;99.90;;;;;;4972075;28;20210;-75
2021/03/23 08:07:29;;;;;;;1.07;1.07;;;7.10;99.90;;;;;;4972817;28;20220;-75
2021/03/23 08:10:04;;;;;;;1.00;1.00;;;7.10;99.90;;;;;;4962403;28;20627;-76
2021/03/23 08:12:50;;;;;;;1.10;1.10;;;7.10;99.90;;;;;;4952670;28;20251;-76
2021/03/23 08:15:54;;;;;;;1.17;1.17;;;7.00;99.90;;;;;;4952621;29;20209;-76
2021/03/23 08:19:01;;;;;;;1.23;1.23;;;7.00;99.90;;;;;;4950510;28;20212;-76
2021/03/23 08:21:50;;;;;;;1.10;1.10;;;7.00;99.90;;;;;;4932115;29;20225;-76
2021/03/23 08:24:28;;;;;;;0.93;0.93;;;6.90;99.90;;;;;;4950991;29;20270;-74
2021/03/23 08:27:10;;;;;;;1.10;1.10;;;6.90;99.90;;;;;;4959357;29;20225;-73
2021/03/23 08:29:48;;;;;;;1.10;1.10;;;7.20;99.90;;;;;;4963905;29;20212;-74
2021/03/23 08:32:22;;;;;;;1.00;1.00;;;7.00;99.90;;;;;;4955429;28;20213;-73
2021/03/23 08:35:17;;;;;;;0.97;0.97;;;7.10;99.90;;;;;;4966619;28;20215;-74
2021/03/23 08:38:13;;;;;;;1.00;1.00;;;7.40;99.90;;;;;;4956323;29;20663;-76
2021/03/23 08:40:47;;;;;;;1.00;1.00;;;7.50;99.90;;;;;;4936632;28;20229;-74
2021/03/23 08:43:20;;;;;;;1.10;1.10;;;7.80;99.90;;;;;;4953137;28;20268;-75
2021/03/23 08:45:50;;;;;;;1.17;1.17;;;7.90;99.90;;;;;;4952862;29;20225;-75
2021/03/23 08:48:27;;;;;;;1.27;1.27;;;7.00;99.90;;;;;;4953984;28;20268;-75
2021/03/23 08:50:58;;;;;;;1.00;1.00;;;7.70;99.90;;;;;;4956389;28;20224;-75
2021/03/23 08:53:46;;;;;;;1.07;1.07;;;7.70;99.90;;;;;;4956276;29;20684;-75
2021/03/23 08:56:13;;;;;;;1.20;1.20;;;7.70;99.90;;;;;;4956393;29;20563;-75
2021/03/23 08:58:48;;;;;;;1.10;1.10;;;7.60;99.90;;;;;;4956393;29;20201;-75
2021/03/23 09:01:40;;;;;;;0.80;0.80;;;7.80;99.90;;;;;;4956390;28;20280;-75
2021/03/23 09:04:30;;;;;;;0.90;0.90;;;7.80;99.90;;;;;;4956441;28;20297;-75
2021/03/23 09:06:59;;;;;;;1.17;1.17;;;7.80;99.90;;;;;;4956299;29;20209;-74
2021/03/23 09:09:37;;;;;;;0.97;0.97;;;7.80;99.90;;;;;;4956120;29;20205;-75
2021/03/23 09:12:10;;;;;;;1.00;1.00;;;7.90;99.90;;;;;;4955789;28;20236;-75
2021/03/23 09:15:21;;;;;;;1.23;1.23;;;8.00;99.90;;;;;;4956117;28;20206;-75
2021/03/23 09:17:56;;;;;;;1.00;1.00;;;8.70;99.90;;;;;;4922419;28;20236;-75
2021/03/23 09:20:56;;;;;;;0.90;0.90;;;8.20;99.90;;;;;;4955817;28;20217;-74
2021/03/23 09:23:39;;;;;;;0.90;0.90;;;8.10;99.90;;;;;;4955861;29;20220;-75
2021/03/23 09:26:51;;;;;;;0.97;0.97;;;8.00;99.90;;;;;;4955689;28;20209;-75
2021/03/23 09:29:39;;;;;;;1.20;1.20;;;8.20;99.90;;;;;;4956235;28;20205;-76
2021/03/23 09:32:09;;;;;;;1.00;1.00;;;7.80;99.90;;;;;;4955466;28;20867;-76
2021/03/23 09:35:14;;;;;;;1.20;1.20;;;7.90;99.90;;;;;;4955568;29;20636;-75
2021/03/23 09:37:47;;;;;;;1.17;1.17;;;7.90;99.90;;;;;;4955634;29;20249;-77
2021/03/23 09:40:34;;;;;;;1.10;1.10;;;8.00;99.90;;;;;;4956561;28;20221;-76
2021/03/23 09:43:29;;;;;;;0.90;0.90;;;8.10;99.90;;;;;;4961088;29;20232;-76
2021/03/23 09:46:07;;;;;;;1.07;1.07;;;8.00;99.90;;;;;;4958065;29;20260;-75
2021/03/23 09:48:50;;;;;;;1.00;1.00;;;8.00;99.90;;;;;;4958156;29;20260;-75
2021/03/23 09:51:41;;;;;;;0.80;0.80;;;7.70;99.90;;;;;;4956548;28;20645;-76
2021/03/23 09:54:15;;;;;;;1.10;1.10;;;7.50;99.90;;;;;;4955710;29;20213;-74
2021/03/23 09:56:46;;;;;;;1.00;1.00;;;7.10;99.90;;;;;;4955700;28;20204;-75
2021/03/23 09:59:16;;;;;;;1.00;1.00;;;7.10;99.90;;;;;;4954595;28;20624;-75
2021/03/23 10:01:58;;;;;;;0.90;0.90;;;6.90;99.90;;;;;;4954963;28;20235;-75
2021/03/23 10:04:28;;;;;;;0.93;0.93;;;7.30;99.90;;;;;;4954908;29;20206;-75
2021/03/23 10:06:56;;;;;;;1.00;1.00;;;7.10;99.90;;;;;;4954832;29;20209;-75
2021/03/23 10:09:27;;;;;;;1.03;1.03;;;7.40;99.90;;;;;;4954881;29;20210;-75
2021/03/23 10:11:54;;;;;;;1.00;1.00;;;7.50;99.90;;;;;;4954915;28;20421;-75
2021/03/23 10:14:33;;;;;;;1.10;1.10;;;7.60;99.90;;;;;;4954756;29;20260;-74
2021/03/23 10:17:22;;;;;;;1.17;1.17;;;7.60;99.90;;;;;;4954863;29;20212;-75
2021/03/23 10:19:52;;;;;;;1.10;1.10;;;8.00;99.90;;;;;;4954935;29;20220;-75
2021/03/23 10:22:27;;;;;;;1.00;1.00;;;8.40;99.90;;;;;;4954886;28;20225;-75
2021/03/23 10:24:55;;;;;;;1.00;1.00;;;8.60;99.90;;;;;;4954389;29;20268;-75
2021/03/23 10:27:27;;;;;;;1.00;1.00;;;8.70;99.90;;;;;;4954701;29;20206;-75
2021/03/23 10:30:09;;;;;;;0.70;0.70;;;8.70;99.90;;;;;;4954752;28;20641;-76
2021/03/23 10:32:43;;;;;;;1.15;1.15;;;8.90;99.90;;;;;;4954375;28;20225;-76
2021/03/23 10:35:15;;;;;;;1.23;1.23;;;8.80;99.90;;;;;;4954138;29;20575;-76
2021/03/23 10:37:42;;;;;;;1.00;1.00;;;8.70;99.90;;;;;;4954430;29;20209;-76
2021/03/23 10:40:32;;;;;;;0.90;0.90;;;9.00;99.90;;;;;;4954522;28;20212;-76
2021/03/23 10:43:00;;;;;;;0.90;0.90;;;;;;;;;;4954481;28;20225;-75
2021/03/23 10:45:37;;;;;;;0.90;0.90;;;8.60;99.90;;;;;;4954816;28;20205;-75
2021/03/23 10:48:13;;;;;;;0.90;0.90;;;8.80;99.90;;;;;;4954570;29;20205;-76
2021/03/23 10:50:43;;;;;;;1.17;1.17;;;8.50;99.90;;;;;;4954863;28;20231;-76
2021/03/23 10:53:19;;;;;;;0.90;0.90;;;8.50;99.90;;;;;;4955216;29;20198;-76
2021/03/23 10:55:48;;;;;;;1.00;1.00;;;8.20;99.90;;;;;;4955660;29;20201;-75
2021/03/23 10:58:24;;;;;;;1.00;1.00;;;8.10;99.90;;;;;;4958113;29;20283;-74
2021/03/23 11:01:13;;;;;;;1.00;1.00;;;8.50;99.90;;;;;;4958787;28;20645;-75
2021/03/23 11:03:42;;;;;;;1.08;1.08;;;8.50;99.90;;;;;;4969246;29;20220;-75
2021/03/23 11:06:25;;;;;;;1.08;1.08;;;8.30;99.90;;;;;;4969030;29;20201;-76
2021/03/23 11:08:53;;;;;;;1.10;1.10;;;8.60;99.90;;;;;;4954139;28;20212;-76
2021/03/23 11:11:20;;;;;;;1.00;1.00;;;8.60;99.90;;;;;;4953500;28;20237;-76
2021/03/23 11:13:47;;;;;;;1.00;1.00;;;8.80;99.90;;;;;;4955920;29;20236;-75
2021/03/23 11:16:18;;;;;;;0.90;0.90;;;8.90;99.90;;;;;;4953568;29;20210;-76
2021/03/23 11:18:46;;;;;;;1.00;1.00;;;8.80;99.90;;;;;;4953868;29;20214;-74
2021/03/23 11:21:16;;;;;;;0.90;0.90;;;9.00;99.90;;;;;;4954213;28;20229;-75
2021/03/23 11:23:47;;;;;;;1.08;1.08;;;8.80;99.90;;;;;;4974096;23;20231;-73
2021/03/23 11:26:17;;;;;;;1.10;1.10;;;8.90;99.90;;;;;;4992214;28;20223;-72
2021/03/23 11:28:45;;;;;;;0.90;0.90;;;9.00;99.90;;;;;;4992316;28;20254;-73
2021/03/23 11:31:16;;;;;;;1.02;1.02;;;8.80;99.90;;;;;;4992199;28;20204;-73
2021/03/23 11:33:48;;;;;;;1.10;1.10;;;9.10;99.90;;;;;;4992016;28;20253;-73
2021/03/23 11:36:15;;;;;;;1.20;1.20;;;9.00;99.90;;;;;;4991829;28;20204;-74
2021/03/23 11:38:42;;;;;;;1.00;1.00;;;8.80;99.90;;;;;;4992225;28;20204;-74
2021/03/23 11:41:15;;;;;;;1.00;1.00;;;8.80;99.90;;;;;;4992119;28;20208;-74
2021/03/23 11:43:45;;;;;;;0.82;0.82;;;9.00;99.90;;;;;;4991908;28;20231;-74
2021/03/23 11:46:19;;;;;;;0.90;0.90;;;8.70;99.90;;;;;;4991621;28;20212;-74
2021/03/23 11:48:51;;;;;;;1.00;1.00;;;8.60;99.90;;;;;;4992241;28;20665;-74
2021/03/23 11:51:21;;;;;;;1.00;1.00;;;8.60;99.90;;;;;;4992191;28;20208;-74
2021/03/23 11:53:48;;;;;;;1.00;1.00;;;8.70;99.90;;;;;;4992236;28;20775;-74
2021/03/23 11:56:15;;;;;;;0.90;0.90;;;;;;;;;;4991959;28;20250;-74
2021/03/23 11:58:43;;;;;;;0.93;0.93;;;8.90;99.90;;;;;;4991756;28;20199;-72
2021/03/23 12:01:11;;;;;;;1.00;1.00;;;9.10;99.90;;;;;;4991817;28;20200;-73
2021/03/23 12:03:40;;;;;;;1.00;1.00;;;9.20;99.90;;;;;;4991593;28;20223;-72
2021/03/23 12:06:08;;;;;;;0.80;0.80;;;;;;;;;;4993767;28;20203;-73
2021/03/23 12:08:41;;;;;;;0.85;0.85;;;9.60;99.90;;;;;;4997063;28;20235;-73
2021/03/23 12:11:21;;;;;;;0.90;0.90;;;9.70;99.90;;;;;;4994907;28;20187;-74
2021/03/23 12:14:03;;;;;;;1.05;1.05;;;9.70;99.90;;;;;;4991648;28;20216;-73
2021/03/23 12:16:37;;;;;;;1.00;1.00;;;9.70;99.90;;;;;;4991330;28;20580;-73
2021/03/23 12:19:23;;;;;;;0.90;0.90;;;9.40;99.90;;;;;;4992006;28;20261;-73
2021/03/23 12:21:51;;;;;;;0.90;0.90;;;9.30;99.90;;;;;;4991684;28;20207;-74
2021/03/23 12:24:20;;;;;;;1.00;1.00;;;9.00;99.90;;;;;;4994572;28;20235;-73
2021/03/23 12:26:48;;;;;;;1.00;1.00;;;9.10;99.90;;;;;;4995540;28;20254;-73
2021/03/23 12:29:15;;;;;;;1.00;1.00;;;9.20;99.90;;;;;;4995692;28;20200;-74
2021/03/23 12:31:42;;;;;;;0.90;0.90;;;9.30;99.90;;;;;;4995889;28;20203;-73
2021/03/23 12:34:09;;;;;;;1.00;1.00;;;9.40;99.90;;;;;;4995370;28;20227;-73
2021/03/23 12:36:38;;;;;;;0.98;0.98;;;9.60;99.90;;;;;;4995048;28;20388;-73
2021/03/23 12:39:06;;;;;;;1.02;1.02;;;9.70;99.90;;;;;;4995384;28;20215;-73
2021/03/23 12:41:34;;;;;;;1.00;1.00;;;10.10;99.90;;;;;;4995275;28;20258;-74
2021/03/23 12:44:03;;;;;;;0.98;0.98;;;9.40;99.90;;;;;;4995150;28;20234;-73
2021/03/23 12:46:31;;;;;;;1.00;1.00;;;9.30;99.90;;;;;;4994842;28;20211;-73
2021/03/23 12:48:59;;;;;;;0.90;0.90;;;9.50;99.90;;;;;;4995060;28;20615;-74
2021/03/23 12:51:35;;;;;;;1.00;1.00;;;9.50;99.90;;;;;;4995048;28;20863;-73
2021/03/23 12:54:03;;;;;;;0.95;0.95;;;9.70;99.90;;;;;;4995037;28;20673;-74
2021/03/23 12:56:30;;;;;;;0.80;0.80;;;10.60;99.90;;;;;;4994696;28;20262;-73
2021/03/23 12:59:00;;;;;;;0.90;0.90;;;9.80;99.90;;;;;;4995143;28;20668;-74
2021/03/23 13:01:27;;;;;;;0.93;0.93;;;9.80;99.90;;;;;;4994752;28;20262;-73
2021/03/23 13:03:54;;;;;;;1.00;1.00;;;10.10;99.90;;;;;;4994876;28;20232;-73
2021/03/23 13:06:26;;;;;;;1.00;1.00;;;9.70;99.90;;;;;;4994647;28;20642;-74
2021/03/23 13:08:55;;;;;;;0.93;0.93;;;9.80;99.90;;;;;;4994971;28;20205;-73
2021/03/23 13:11:26;;;;;;;0.90;0.90;;;10.00;99.90;;;;;;4994791;28;20649;-74
2021/03/23 13:14:00;;;;;;;0.85;0.85;;;10.10;99.90;;;;;;4994568;28;20287;-74
2021/03/23 13:16:28;;;;;;;1.00;1.00;;;10.10;99.90;;;;;;4994831;28;20258;-74
2021/03/23 13:18:55;;;;;;;0.90;0.90;;;9.90;99.90;;;;;;4994649;28;20738;-74
2021/03/23 13:21:26;;;;;;;0.80;0.80;;;9.60;99.90;;;;;;4994548;28;20208;-74
2021/03/23 13:23:57;;;;;;;0.95;0.95;;;9.70;99.90;;;;;;4994325;28;20379;-75
2021/03/23 13:26:27;;;;;;;0.93;0.93;;;9.90;99.90;;;;;;4994285;28;20216;-74
2021/03/23 13:29:00;;;;;;;0.88;0.88;;;9.70;99.90;;;;;;4994539;28;20327;-74
2021/03/23 13:31:29;;;;;;;0.98;0.98;;;9.30;99.90;;;;;;4994646;28;20620;-74
2021/03/23 13:33:56;;;;;;;0.90;0.90;;;9.70;99.90;;;;;;4993946;28;20750;-74
2021/03/23 13:36:39;;;;;;;0.90;0.90;;;9.50;99.90;;;;;;4994197;28;20203;-74
2021/03/23 13:39:12;;;;;;;1.02;1.02;;;9.80;99.90;;;;;;4994685;28;20211;-74
2021/03/23 13:41:40;;;;;;;1.02;1.02;;;9.10;99.90;;;;;;4994481;28;20235;-74
2021/03/23 13:44:29;;;;;;;1.08;1.08;;;9.10;99.90;;;;;;4994158;28;20231;-74
2021/03/23 13:46:56;;;;;;;1.00;1.00;;;8.80;99.90;;;;;;4994070;28;20208;-74
2021/03/23 13:49:45;;;;;;;0.98;0.98;;;8.80;99.90;;;;;;4994473;28;20429;-73
2021/03/23 13:52:17;;;;;;;0.90;0.90;;;8.80;99.90;;;;;;4994096;28;20200;-74
2021/03/23 13:54:44;;;;;;;1.00;1.00;;;9.00;99.90;;;;;;4993862;28;20363;-74
2021/03/23 13:57:12;;;;;;;1.00;1.00;;;8.90;99.90;;;;;;4993764;28;20236;-74
2021/03/23 13:59:40;;;;;;;0.95;0.95;;;8.70;99.90;;;;;;4993767;28;20295;-74
2021/03/23 14:02:07;;;;;;;0.90;0.90;;;8.80;99.90;;;;;;4993878;28;20204;-74
2021/03/23 14:04:35;;;;;;;0.95;0.95;;;;;;;;;;4993773;28;20232;-74
2021/03/23 14:07:02;;;;;;;0.80;0.80;;;8.40;99.90;;;;;;4993573;28;20207;-74
2021/03/23 14:09:35;;;;;;;1.10;1.10;;;8.40;99.90;;;;;;4993821;28;20287;-74
2021/03/23 14:12:07;;;;;;;1.20;1.20;;;8.40;99.90;;;;;;4993483;28;20247;-74
2021/03/23 14:14:35;;;;;;;0.90;0.90;;;8.50;99.90;;;;;;4993614;28;20231;-74
2021/03/23 14:17:02;;;;;;;1.00;1.00;;;8.40;99.90;;;;;;4993596;28;20266;-73
2021/03/23 14:19:29;;;;;;;1.00;1.00;;;;;;;;;;4993664;28;20212;-76
2021/03/23 14:21:57;;;;;;;0.90;0.90;;;9.10;99.90;;;;;;4993547;28;20204;-73
2021/03/23 14:24:24;;;;;;;0.90;0.90;;;8.70;99.90;;;;;;4993024;28;20870;-73
2021/03/23 14:26:51;;;;;;;0.90;0.90;;;8.70;99.90;;;;;;4993025;28;20204;-73
2021/03/23 14:29:18;;;;;;;0.90;0.90;;;8.70;99.90;;;;;;4993580;28;20262;-73
2021/03/23 14:31:45;;;;;;;0.90;0.90;;;8.50;99.90;;;;;;4993534;28;20628;-73
2021/03/23 14:34:12;;;;;;;0.90;0.90;;;8.40;99.90;;;;;;4993052;28;20220;-74
2021/03/23 14:36:43;;;;;;;1.00;1.00;;;8.20;99.90;;;;;;4993022;28;20251;-73
2021/03/23 14:39:20;;;;;;;1.00;1.00;;;8.30;99.90;;;;;;4993281;28;20407;-73
2021/03/23 14:41:48;;;;;;;1.00;1.00;;;;;;;;;;4992266;28;20215;-73
2021/03/23 14:44:35;;;;;;;1.00;1.00;;;8.00;99.90;;;;;;4992764;28;20238;-75
2021/03/23 14:47:03;;;;;;;1.00;1.00;;;8.40;99.90;;;;;;4981456;28;20200;-75
2021/03/23 14:49:30;;;;;;;1.00;1.00;;;8.20;99.90;;;;;;4983197;28;20254;-74
2021/03/23 14:52:14;;;;;;;1.00;1.00;;;8.30;99.90;;;;;;4991934;28;20731;-74
2021/03/23 14:54:42;;;;;;;1.00;1.00;;;8.20;99.90;;;;;;4992384;28;20661;-74
2021/03/23 14:57:17;;;;;;;0.90;0.90;;;8.50;99.90;;;;;;4992935;28;20264;-76
2021/03/23 14:59:44;;;;;;;0.90;0.90;;;8.60;99.90;;;;;;4992754;28;20207;-76
2021/03/23 15:02:12;;;;;;;0.90;0.90;;;8.30;99.90;;;;;;4992797;28;20204;-76
2021/03/23 15:04:40;;;;;;;1.10;1.10;;;8.50;99.90;;;;;;4992588;28;20236;-76
2021/03/23 15:07:18;;;;;;;0.98;0.98;;;8.40;99.90;;;;;;4992959;28;20612;-76
2021/03/23 15:09:46;;;;;;;0.80;0.80;;;8.50;99.90;;;;;;4992628;28;20208;-77
2021/03/23 15:12:14;;;;;;;0.90;0.90;;;8.40;99.90;;;;;;4992185;28;20204;-77
2021/03/23 15:14:51;;;;;;;1.00;1.00;;;;;;;;;;4992006;28;20246;-76
2021/03/23 15:17:19;;;;;;;0.90;0.90;;;8.10;99.90;;;;;;4992521;28;20215;-76
2021/03/23 15:19:46;;;;;;;1.00;1.00;;;8.20;99.90;;;;;;4992165;28;20207;-76
2021/03/23 15:22:17;;;;;;;1.00;1.00;;;8.10;99.90;;;;;;4992091;28;20227;-76
2021/03/23 15:24:44;;;;;;;1.20;1.20;;;8.00;99.90;;;;;;4991670;28;20231;-76
2021/03/23 15:27:12;;;;;;;0.90;0.90;;;8.00;99.90;;;;;;4992013;28;20200;-76
2021/03/23 15:29:39;;;;;;;1.00;1.00;;;;;;;;;;4992203;28;20203;-76
2021/03/23 15:32:08;;;;;;;1.10;1.10;;;8.30;99.90;;;;;;4991915;28;20204;-76
2021/03/23 15:34:37;;;;;;;1.00;1.00;;;8.10;99.90;;;;;;4992230;28;20258;-76
2021/03/23 15:37:13;;;;;;;1.10;1.10;;;8.40;99.90;;;;;;4991930;28;20748;-76
2021/03/23 15:39:41;;;;;;;0.90;0.90;;;8.30;99.90;;;;;;4991837;28;20204;-76
2021/03/23 15:42:10;;;;;;;1.00;1.00;;;8.40;99.90;;;;;;4991887;28;20204;-76
2021/03/23 15:44:37;;;;;;;0.90;0.90;;;;;;;;;;4991867;28;20663;-76
2021/03/23 15:47:05;;;;;;;1.00;1.00;;;8.00;99.90;;;;;;4991731;28;20203;-76
2021/03/23 15:49:33;;;;;;;1.10;1.10;;;;;;;;;;4991855;28;20210;-74
2021/03/23 15:52:01;;;;;;;1.13;1.13;;;8.20;99.90;;;;;;4980076;28;20256;-75
2021/03/23 15:54:29;;;;;;;0.90;0.90;;;8.00;99.90;;;;;;4972174;28;20720;-75
2021/03/23 15:56:56;;;;;;;0.90;0.90;;;8.20;99.90;;;;;;4976333;28;20204;-75
2021/03/23 15:59:27;;;;;;;1.00;1.00;;;8.20;99.90;;;;;;4992176;28;20203;-75
2021/03/23 16:01:54;;;;;;;0.90;0.90;;;8.20;99.90;;;;;;4991759;28;20204;-74
2021/03/23 16:04:22;;;;;;;0.90;0.90;;;8.30;99.90;;;;;;4991504;28;20235;-74
2021/03/23 16:06:50;;;;;;;0.90;0.90;;;8.20;99.90;;;;;;4991308;28;20314;-74
2021/03/23 16:09:25;;;;;;;0.80;0.80;;;8.00;99.90;;;;;;4991627;28;20694;-73
2021/03/23 16:11:53;;;;;;;0.90;0.90;;;8.20;99.90;;;;;;4991880;28;20215;-74
2021/03/23 16:14:20;;;;;;;0.80;0.80;;;;;;;;;;4991914;28;20689;-75
2021/03/23 16:16:49;;;;;;;0.90;0.90;;;8.10;99.90;;;;;;4991779;28;20603;-73
2021/03/23 16:19:16;;;;;;;0.95;0.95;;;;;;;;;;4991515;28;20204;-75
2021/03/23 16:21:43;;;;;;;0.90;0.90;;;8.20;99.90;;;;;;4991569;28;20620;-74
2021/03/23 16:24:11;;;;;;;0.90;0.90;;;;;;;;;;4991177;28;20236;-75
2021/03/23 16:26:38;;;;;;;1.08;1.08;;;8.50;99.90;;;;;;4991547;28;20215;-73
2021/03/23 16:29:06;;;;;;;1.00;1.00;;;8.30;99.90;;;;;;4991438;28;20300;-74
2021/03/23 16:31:38;;;;;;;0.90;0.90;;;7.90;99.90;;;;;;4991317;28;20257;-73
2021/03/23 16:34:08;;;;;;;1.00;1.00;;;8.20;99.90;;;;;;4991183;28;20701;-73
2021/03/23 16:36:36;;;;;;;0.77;0.77;;;8.20;99.90;;;;;;4991246;28;20212;-74
2021/03/23 16:39:04;;;;;;;0.90;0.90;;;8.20;99.90;;;;;;4991229;28;20206;-73
2021/03/23 16:41:31;;;;;;;0.90;0.90;;;8.40;99.90;;;;;;4991452;28;20200;-73
2021/03/23 16:43:59;;;;;;;0.90;0.90;;;8.20;99.90;;;;;;4991374;28;20227;-73
2021/03/23 16:46:26;;;;;;;0.90;0.90;;;8.10;99.90;;;;;;4990894;28;20340;-73
2021/03/23 16:48:58;;;;;;;0.90;0.90;;;7.80;99.90;;;;;;4991504;28;20211;-73
2021/03/23 16:51:34;;;;;;;1.00;1.00;;;7.90;99.90;;;;;;4991452;28;20200;-73
2021/03/23 16:54:02;;;;;;;1.10;1.10;;;7.90;99.90;;;;;;4990853;28;20247;-73
2021/03/23 16:56:29;;;;;;;0.90;0.90;;;7.90;99.90;;;;;;4991198;28;20410;-73
2021/03/23 16:58:57;;;;;;;1.00;1.00;;;8.00;99.90;;;;;;4991389;28;20212;-74
2021/03/23 17:01:26;;;;;;;1.00;1.00;;;7.90;99.90;;;;;;4977884;28;20220;-73
2021/03/23 17:03:54;;;;;;;1.10;1.10;;;8.00;99.90;;;;;;4971842;28;20364;-76
2021/03/23 17:06:23;;;;;;;1.10;1.10;;;7.80;99.90;;;;;;4972085;28;20267;-75
2021/03/23 17:08:50;;;;;;;0.90;0.90;;;7.60;99.90;;;;;;4972778;28;20610;-73
2021/03/23 17:11:21;;;;;;;1.10;1.10;;;7.90;99.90;;;;;;4974979;28;20208;-75
2021/03/23 17:13:48;;;;;;;0.90;0.90;;;8.00;99.90;;;;;;4975172;28;20468;-74
2021/03/23 17:16:15;;;;;;;1.00;1.00;;;7.90;99.90;;;;;;4975085;28;20275;-73
2021/03/23 17:18:44;;;;;;;1.00;1.00;;;8.00;99.90;;;;;;4975169;28;20205;-73
2021/03/23 17:21:12;;;;;;;0.90;0.90;;;8.00;99.90;;;;;;4981284;28;20239;-73
2021/03/23 17:23:39;;;;;;;0.80;0.80;;;8.00;99.90;;;;;;4994687;28;20240;-73
2021/03/23 17:26:07;;;;;;;1.07;1.07;;;8.60;99.90;;;;;;4994436;28;20668;-73
2021/03/23 17:28:36;;;;;;;0.97;0.97;;;7.80;99.90;;;;;;4994794;28;20204;-76
2021/03/23 17:31:05;;;;;;;1.10;1.10;;;8.00;99.90;;;;;;4994304;28;20214;-75
2021/03/23 17:33:36;;;;;;;1.00;1.00;;;7.80;99.90;;;;;;4994468;28;20258;-77
2021/03/23 17:36:07;;;;;;;1.10;1.10;;;7.90;99.90;;;;;;4994215;28;20240;-75
2021/03/23 17:38:34;;;;;;;0.80;0.80;;;7.80;99.90;;;;;;4994256;28;20638;-74
2021/03/23 17:41:03;;;;;;;1.10;1.10;;;7.80;99.90;;;;;;4983536;28;20232;-74
2021/03/23 17:43:31;;;;;;;1.00;1.00;;;7.40;99.90;;;;;;4974353;28;20225;-74
2021/03/23 17:45:59;;;;;;;1.20;1.20;;;8.00;99.90;;;;;;4974472;28;20230;-74
2021/03/23 17:48:29;;;;;;;1.10;1.10;;;7.90;99.90;;;;;;4974581;28;20232;-74
2021/03/23 17:50:57;;;;;;;1.00;1.00;;;8.00;99.90;;;;;;4974093;28;20204;-74
2021/03/23 17:53:28;;;;;;;0.90;0.90;;;8.10;99.90;;;;;;4978469;28;20701;-74
2021/03/23 17:55:56;;;;;;;0.80;0.80;;;8.10;99.90;;;;;;4991643;28;20200;-75
2021/03/23 17:58:26;;;;;;;1.00;1.00;;;8.00;99.90;;;;;;4991892;28;20204;-74
2021/03/23 18:00:54;;;;;;;1.25;1.25;;;7.90;99.90;;;;;;4991388;28;20215;-75
2021/03/23 18:03:23;;;;;;;1.00;1.00;;;7.80;99.90;;;;;;4991533;28;20223;-74
2021/03/23 18:05:51;;;;;;;0.80;0.80;;;;;;;;;;4984425;28;20798;-75
2021/03/23 18:08:18;;;;;;;1.00;1.00;;;7.40;99.90;;;;;;4993543;28;20282;-75
2021/03/23 18:10:46;;;;;;;1.00;1.00;;;7.70;99.90;;;;;;4993537;28;20204;-75
2021/03/23 18:13:24;;;;;;;1.00;1.00;;;7.50;99.90;;;;;;4993670;28;20283;-75
2021/03/23 18:15:51;;;;;;;0.90;0.90;;;7.90;99.90;;;;;;4993374;28;20235;-75
2021/03/23 18:18:18;;;;;;;0.90;0.90;;;7.90;99.90;;;;;;4993797;28;20642;-74
2021/03/23 18:20:45;;;;;;;1.00;1.00;;;7.70;99.90;;;;;;4993004;28;20200;-74
2021/03/23 18:23:14;;;;;;;0.90;0.90;;;7.80;99.90;;;;;;4994050;28;20270;-74
2021/03/23 18:25:42;;;;;;;1.00;1.00;;;;;;;;;;4993650;28;20212;-74
2021/03/23 18:28:10;;;;;;;0.90;0.90;;;7.90;99.90;;;;;;4994350;28;20203;-74
2021/03/23 18:30:38;;;;;;;1.00;1.00;;;7.70;99.90;;;;;;4993947;28;20207;-74
2021/03/23 18:33:08;;;;;;;1.00;1.00;;;7.50;99.90;;;;;;4994466;28;20205;-74
2021/03/23 18:35:37;;;;;;;1.00;1.00;;;7.50;99.90;;;;;;4993636;28;20274;-74
2021/03/23 18:38:05;;;;;;;1.10;1.10;;;7.50;99.90;;;;;;4994286;28;20204;-74
2021/03/23 18:40:35;;;;;;;1.00;1.00;;;7.70;99.90;;;;;;4993711;28;20756;-75
2021/03/23 18:43:04;;;;;;;1.03;1.03;;;7.60;99.90;;;;;;4993780;28;20208;-74